createdAt,value
2019-04-29T00:00:52.920Z,7.30
2019-04-29T00:01:53.100Z,7.00
2019-04-29T00:02:53.287Z,7.10
2019-04-29T00:03:53.510Z,6.90
2019-04-29T00:04:53.635Z,6.60
2019-04-29T00:05:53.811Z,6.80
2019-04-29T00:06:53.998Z,6.60
2019-04-29T00:07:54.181Z,5.90
2019-04-29T00:08:54.372Z,6.40
2019-04-29T00:09:54.555Z,6.30
2019-04-29T00:10:54.739Z,6.80
2019-04-29T00:11:54.911Z,6.00
2019-04-29T00:12:55.094Z,6.10
2019-04-29T00:13:55.275Z,6.00
2019-04-29T00:14:55.448Z,6.50
2019-04-29T00:15:55.637Z,6.30
2019-04-29T00:16:55.819Z,5.60
2019-04-29T00:17:56.007Z,6.10
2019-04-29T00:18:56.196Z,5.60
2019-04-29T00:19:56.383Z,6.00
2019-04-29T00:20:56.564Z,6.30
2019-04-29T00:21:56.749Z,6.90
2019-04-29T00:22:56.934Z,6.80
2019-04-29T00:24:03.596Z,6.80
2019-04-29T00:24:57.297Z,6.40
2019-04-29T00:25:57.477Z,6.30
2019-04-29T00:26:57.666Z,6.30
2019-04-29T00:27:57.849Z,6.00
2019-04-29T00:28:58.032Z,6.20
2019-04-29T00:29:58.214Z,7.10
2019-04-29T00:30:58.392Z,6.40
2019-04-29T00:31:58.575Z,6.50
2019-04-29T00:32:58.756Z,6.60
2019-04-29T00:33:58.937Z,6.20
2019-04-29T00:34:59.116Z,6.60
2019-04-29T00:35:59.299Z,6.50
2019-04-29T00:36:59.477Z,6.60
2019-04-29T00:37:59.661Z,6.70
2019-04-29T00:38:59.840Z,5.90
2019-04-29T00:40:00.022Z,6.40
2019-04-29T00:41:00.207Z,6.60
2019-04-29T00:42:00.385Z,5.90
2019-04-29T00:43:00.573Z,6.20
2019-04-29T00:44:00.759Z,6.20
2019-04-29T00:45:00.990Z,6.50
2019-04-29T00:46:01.107Z,6.10
2019-04-29T00:47:01.290Z,6.10
2019-04-29T00:48:01.476Z,6.30
2019-04-29T00:49:01.646Z,6.50
2019-04-29T00:50:01.825Z,6.60
2019-04-29T00:51:02.011Z,6.50
2019-04-29T00:52:02.202Z,6.40
2019-04-29T00:53:02.378Z,6.50
2019-04-29T00:54:02.563Z,6.20
2019-04-29T00:55:02.741Z,6.20
2019-04-29T00:56:02.929Z,5.90
2019-04-29T00:57:03.115Z,6.40
2019-04-29T00:58:03.295Z,6.20
2019-04-29T00:59:03.476Z,6.20
2019-04-29T01:00:03.653Z,6.20
2019-04-29T01:01:03.848Z,6.10
2019-04-29T01:02:04.036Z,5.90
2019-04-29T01:03:04.217Z,6.70
2019-04-29T01:04:04.395Z,6.60
2019-04-29T01:05:04.582Z,6.70
2019-04-29T01:06:04.759Z,6.30
2019-04-29T01:07:04.942Z,6.60
2019-04-29T01:08:05.121Z,6.60
2019-04-29T01:09:05.303Z,6.60
2019-04-29T01:10:05.489Z,6.20
2019-04-29T01:11:05.665Z,5.90
2019-04-29T01:12:05.850Z,6.20
2019-04-29T01:13:06.039Z,6.60
2019-04-29T01:14:06.222Z,6.40
2019-04-29T01:15:06.401Z,6.40
2019-04-29T01:16:06.588Z,6.20
2019-04-29T01:17:06.767Z,6.70
2019-04-29T01:18:06.954Z,6.60
2019-04-29T01:19:07.136Z,6.30
2019-04-29T01:20:07.313Z,6.10
2019-04-29T01:21:07.499Z,6.60
2019-04-29T01:22:07.682Z,5.60
2019-04-29T01:23:07.864Z,6.50
2019-04-29T01:24:08.047Z,6.30
2019-04-29T01:25:08.224Z,6.80
2019-04-29T01:26:08.407Z,6.10
2019-04-29T01:27:08.588Z,6.60
2019-04-29T01:28:08.771Z,6.70
2019-04-29T01:29:08.959Z,6.60
2019-04-29T01:30:09.138Z,6.30
2019-04-29T01:31:09.404Z,6.20
2019-04-29T01:32:09.507Z,6.50
2019-04-29T01:33:09.691Z,6.10
2019-04-29T01:34:09.866Z,6.30
2019-04-29T01:35:10.051Z,6.70
2019-04-29T01:36:10.235Z,6.60
2019-04-29T01:37:10.413Z,6.20
2019-04-29T01:38:10.590Z,5.80
2019-04-29T01:39:10.772Z,6.30
2019-04-29T01:40:10.955Z,6.40
2019-04-29T01:41:11.132Z,6.70
2019-04-29T01:42:11.315Z,6.60
2019-04-29T01:43:11.496Z,6.80
2019-04-29T01:44:11.684Z,6.40
2019-04-29T01:45:11.861Z,6.50
2019-04-29T01:46:12.043Z,6.70
2019-04-29T01:47:12.226Z,6.90
2019-04-29T01:48:12.410Z,6.80
2019-04-29T01:49:12.595Z,6.50
2019-04-29T01:50:12.782Z,6.60
2019-04-29T01:51:12.964Z,6.30
2019-04-29T01:52:13.145Z,6.10
2019-04-29T01:53:13.330Z,6.50
2019-04-29T01:54:13.507Z,6.70
2019-04-29T01:55:13.691Z,6.50
2019-04-29T01:56:13.871Z,6.70
2019-04-29T01:57:14.048Z,6.40
2019-04-29T01:58:14.230Z,6.40
2019-04-29T01:59:14.415Z,6.80
2019-04-29T02:00:14.597Z,6.60
2019-04-29T02:01:14.776Z,6.60
2019-04-29T02:02:14.958Z,6.50
2019-04-29T02:03:15.139Z,6.50
2019-04-29T02:04:15.320Z,6.30
2019-04-29T02:05:15.496Z,6.70
2019-04-29T02:06:15.674Z,7.00
2019-04-29T02:07:15.859Z,6.30
2019-04-29T02:08:16.041Z,6.80
2019-04-29T02:09:16.223Z,5.90
2019-04-29T02:10:16.401Z,6.30
2019-04-29T02:11:16.575Z,6.40
2019-04-29T02:12:16.769Z,6.90
2019-04-29T02:13:17.024Z,6.40
2019-04-29T02:14:17.123Z,5.70
2019-04-29T02:15:17.311Z,6.20
2019-04-29T02:16:17.487Z,6.20
2019-04-29T02:17:17.665Z,6.10
2019-04-29T02:18:17.905Z,6.30
2019-04-29T02:19:18.029Z,6.90
2019-04-29T02:20:18.219Z,6.60
2019-04-29T02:21:18.401Z,6.40
2019-04-29T02:22:18.586Z,6.30
2019-04-29T02:23:18.764Z,6.80
2019-04-29T02:24:18.941Z,6.70
2019-04-29T02:25:19.124Z,6.90
2019-04-29T02:26:19.311Z,6.70
2019-04-29T02:27:19.485Z,6.10
2019-04-29T02:28:19.671Z,6.30
2019-04-29T02:29:19.854Z,6.90
2019-04-29T02:30:20.037Z,7.00
2019-04-29T02:31:20.224Z,6.90
2019-04-29T02:32:20.398Z,6.80
2019-04-29T02:33:20.573Z,6.40
2019-04-29T02:34:20.751Z,7.10
2019-04-29T02:35:20.934Z,6.30
2019-04-29T02:36:21.116Z,7.00
2019-04-29T02:37:21.300Z,6.40
2019-04-29T02:38:21.474Z,6.20
2019-04-29T02:39:21.664Z,6.00
2019-04-29T02:40:21.834Z,6.90
2019-04-29T02:41:22.021Z,6.80
2019-04-29T02:42:22.196Z,6.10
2019-04-29T02:43:22.370Z,6.20
2019-04-29T02:44:22.550Z,6.10
2019-04-29T02:45:22.728Z,6.50
2019-04-29T02:46:22.915Z,6.50
2019-04-29T02:47:23.092Z,6.40
2019-04-29T02:48:23.278Z,6.20
2019-04-29T02:49:23.460Z,6.70
2019-04-29T02:50:23.657Z,7.10
2019-04-29T02:51:23.824Z,6.70
2019-04-29T02:52:24.006Z,6.60
2019-04-29T02:53:24.194Z,6.80
2019-04-29T02:54:24.358Z,6.70
2019-04-29T02:55:24.545Z,6.80
2019-04-29T02:56:24.727Z,6.60
2019-04-29T02:57:24.903Z,6.70
2019-04-29T02:58:25.085Z,6.30
2019-04-29T02:59:25.266Z,7.20
2019-04-29T03:00:25.449Z,7.70
2019-04-29T03:01:25.628Z,7.00
2019-04-29T03:02:25.805Z,6.80
2019-04-29T03:03:25.985Z,6.90
2019-04-29T03:04:26.162Z,6.80
2019-04-29T03:05:26.347Z,7.00
2019-04-29T03:06:26.542Z,6.90
2019-04-29T03:07:26.704Z,6.40
2019-04-29T03:08:26.880Z,5.80
2019-04-29T03:09:27.065Z,7.00
2019-04-29T03:10:27.277Z,7.00
2019-04-29T03:11:27.425Z,6.60
2019-04-29T03:12:27.607Z,6.10
2019-04-29T03:13:27.792Z,6.80
2019-04-29T03:14:27.965Z,6.70
2019-04-29T03:15:28.147Z,6.10
2019-04-29T03:16:28.435Z,6.40
2019-04-29T03:17:28.504Z,6.30
2019-04-29T03:18:28.686Z,6.70
2019-04-29T03:19:28.874Z,6.00
2019-04-29T03:20:29.046Z,6.20
2019-04-29T03:21:29.229Z,6.40
2019-04-29T03:22:29.418Z,9.60
2019-04-29T03:23:29.593Z,9.20
2019-04-29T03:24:29.776Z,8.60
2019-04-29T03:25:29.963Z,8.20
2019-04-29T03:26:30.146Z,8.20
2019-04-29T03:27:30.326Z,8.20
2019-04-29T03:28:30.518Z,7.50
2019-04-29T03:29:30.691Z,7.70
2019-04-29T03:30:30.881Z,7.60
2019-04-29T03:31:31.137Z,8.60
2019-04-29T03:32:31.243Z,15.90
2019-04-29T03:33:31.429Z,21.00
2019-04-29T03:34:31.606Z,23.20
2019-04-29T03:35:31.788Z,15.10
2019-04-29T03:36:31.962Z,9.90
2019-04-29T03:37:32.163Z,10.10
2019-04-29T03:38:32.349Z,8.90
2019-04-29T03:39:32.549Z,7.10
2019-04-29T03:40:32.708Z,6.60
2019-04-29T03:41:32.910Z,6.00
2019-04-29T03:42:33.070Z,6.90
2019-04-29T03:43:33.250Z,6.50
2019-04-29T03:44:33.416Z,6.50
2019-04-29T03:45:33.600Z,6.70
2019-04-29T03:46:33.785Z,6.40
2019-04-29T03:47:33.970Z,7.00
2019-04-29T03:48:34.153Z,6.00
2019-04-29T03:49:34.331Z,6.70
2019-04-29T03:50:34.529Z,6.30
2019-04-29T03:51:34.690Z,6.60
2019-04-29T03:52:34.876Z,6.90
2019-04-29T03:53:35.057Z,8.00
2019-04-29T03:54:35.235Z,6.80
2019-04-29T03:55:39.965Z,6.60
2019-04-29T03:56:35.692Z,6.30
2019-04-29T03:57:35.816Z,6.40
2019-04-29T03:58:35.959Z,6.00
2019-04-29T03:59:36.144Z,6.30
2019-04-29T04:00:36.324Z,6.30
2019-04-29T04:01:36.509Z,6.30
2019-04-29T04:02:36.692Z,7.20
2019-04-29T04:03:36.869Z,6.20
2019-04-29T04:04:37.051Z,6.00
2019-04-29T04:05:37.235Z,6.60
2019-04-29T04:06:37.416Z,6.60
2019-04-29T04:07:37.592Z,6.50
2019-04-29T04:08:37.772Z,7.00
2019-04-29T04:09:37.953Z,6.80
2019-04-29T04:10:38.131Z,6.20
2019-04-29T04:11:38.314Z,6.90
2019-04-29T04:12:38.498Z,6.40
2019-04-29T04:13:38.678Z,6.90
2019-04-29T04:14:38.853Z,5.80
2019-04-29T04:15:39.041Z,6.80
2019-04-29T04:16:39.225Z,6.70
2019-04-29T04:17:39.413Z,6.20
2019-04-29T04:18:39.595Z,7.20
2019-04-29T04:19:39.765Z,6.80
2019-04-29T04:20:39.943Z,6.70
2019-04-29T04:21:40.134Z,6.60
2019-04-29T04:22:40.309Z,6.50
2019-04-29T04:23:40.488Z,7.30
2019-04-29T04:24:40.675Z,6.60
2019-04-29T04:25:40.846Z,6.70
2019-04-29T04:26:41.029Z,6.50
2019-04-29T04:27:41.206Z,7.20
2019-04-29T04:28:41.394Z,6.60
2019-04-29T04:29:41.573Z,6.60
2019-04-29T04:30:41.796Z,7.10
2019-04-29T04:31:41.933Z,7.00
2019-04-29T04:32:42.115Z,7.50
2019-04-29T04:33:42.291Z,7.50
2019-04-29T04:34:42.486Z,7.60
2019-04-29T04:35:43.098Z,7.00
2019-04-29T04:36:42.771Z,7.90
2019-04-29T04:37:42.954Z,7.10
2019-04-29T04:38:43.136Z,7.20
2019-04-29T04:39:43.329Z,6.30
2019-04-29T04:40:43.525Z,6.40
2019-04-29T04:41:43.697Z,5.80
2019-04-29T04:42:43.868Z,6.10
2019-04-29T04:43:44.048Z,5.70
2019-04-29T04:44:44.225Z,6.00
2019-04-29T04:45:44.418Z,5.80
2019-04-29T04:46:44.598Z,6.30
2019-04-29T04:47:44.776Z,6.80
2019-04-29T04:48:44.958Z,5.80
2019-04-29T04:49:45.148Z,5.90
2019-04-29T04:50:45.325Z,6.50
2019-04-29T04:51:45.505Z,6.30
2019-04-29T04:52:45.688Z,5.50
2019-04-29T04:53:45.865Z,6.50
2019-04-29T04:54:46.049Z,6.00
2019-04-29T04:55:46.230Z,6.10
2019-04-29T04:56:46.415Z,5.70
2019-04-29T04:57:46.597Z,5.50
2019-04-29T04:58:46.788Z,5.40
2019-04-29T04:59:46.972Z,5.70
2019-04-29T05:00:47.153Z,5.40
2019-04-29T05:01:47.341Z,5.10
2019-04-29T05:02:47.516Z,5.30
2019-04-29T05:03:47.700Z,5.60
2019-04-29T05:04:47.882Z,5.30
2019-04-29T05:05:48.081Z,5.10
2019-04-29T05:06:48.272Z,5.40
2019-04-29T05:07:48.436Z,5.30
2019-04-29T05:08:48.623Z,5.10
2019-04-29T05:09:48.812Z,5.30
2019-04-29T05:10:49.107Z,5.70
2019-04-29T05:11:49.176Z,5.40
2019-04-29T05:12:49.361Z,5.30
2019-04-29T05:13:49.540Z,5.00
2019-04-29T05:14:49.724Z,5.40
2019-04-29T05:15:49.906Z,4.80
2019-04-29T05:16:50.089Z,5.50
2019-04-29T05:17:53.052Z,5.70
2019-04-29T05:18:50.484Z,5.10
2019-04-29T05:19:50.662Z,5.40
2019-04-29T05:20:50.846Z,5.30
2019-04-29T05:21:51.028Z,5.20
2019-04-29T05:22:51.211Z,5.60
2019-04-29T05:23:51.398Z,4.80
2019-04-29T05:24:51.578Z,4.90
2019-04-29T05:25:51.782Z,4.80
2019-04-29T05:26:51.956Z,4.90
2019-04-29T05:27:52.139Z,5.10
2019-04-29T05:28:52.330Z,4.70
2019-04-29T05:29:52.512Z,5.10
2019-04-29T05:30:52.698Z,4.40
2019-04-29T05:31:52.877Z,4.00
2019-04-29T05:32:53.062Z,4.60
2019-04-29T05:33:53.293Z,4.90
2019-04-29T05:34:55.014Z,4.60
2019-04-29T05:35:56.757Z,5.00
2019-04-29T05:36:53.808Z,4.80
2019-04-29T05:37:56.651Z,4.80
2019-04-29T05:38:54.219Z,4.70
2019-04-29T05:39:54.347Z,4.90
2019-04-29T05:40:56.868Z,5.60
2019-04-29T05:41:54.713Z,4.10
2019-04-29T05:42:54.894Z,5.00
2019-04-29T05:43:55.087Z,4.80
2019-04-29T05:44:55.299Z,5.10
2019-04-29T05:45:55.444Z,4.80
2019-04-29T05:46:55.627Z,4.90
2019-04-29T05:47:57.155Z,4.90
2019-04-29T05:48:55.987Z,5.30
2019-04-29T05:49:56.170Z,4.90
2019-04-29T05:50:56.352Z,5.70
2019-04-29T05:51:57.592Z,5.10
2019-04-29T05:52:56.716Z,5.10
2019-04-29T05:53:56.911Z,4.90
2019-04-29T05:54:57.106Z,5.00
2019-04-29T05:55:57.280Z,5.20
2019-04-29T05:56:57.458Z,5.40
2019-04-29T05:58:03.070Z,5.70
2019-04-29T05:58:57.818Z,4.90
2019-04-29T05:59:58.040Z,4.90
2019-04-29T06:00:58.181Z,5.10
2019-04-29T06:01:58.349Z,5.00
2019-04-29T06:02:58.548Z,5.10
2019-04-29T06:03:58.733Z,4.70
2019-04-29T06:04:58.916Z,4.90
2019-04-29T06:05:59.096Z,5.10
2019-04-29T06:06:59.286Z,4.60
2019-04-29T06:08:01.195Z,4.40
2019-04-29T06:08:59.648Z,4.80
2019-04-29T06:09:59.832Z,4.90
2019-04-29T06:11:00.001Z,4.80
2019-04-29T06:12:00.197Z,5.00
2019-04-29T06:13:00.379Z,4.40
2019-04-29T06:14:00.561Z,5.00
2019-04-29T06:15:00.746Z,4.90
2019-04-29T06:16:00.925Z,4.70
2019-04-29T06:17:02.944Z,5.30
2019-04-29T06:18:01.295Z,5.10
2019-04-29T06:19:05.566Z,4.90
2019-04-29T06:20:01.671Z,5.20
2019-04-29T06:21:08.959Z,4.80
2019-04-29T06:22:03.897Z,5.40
2019-04-29T06:23:02.211Z,5.20
2019-04-29T06:24:04.175Z,5.00
2019-04-29T06:25:02.590Z,4.80
2019-04-29T06:26:02.768Z,6.00
2019-04-29T06:27:02.956Z,5.00
2019-04-29T06:28:03.138Z,4.70
2019-04-29T06:29:05.836Z,5.00
2019-04-29T06:30:04.946Z,5.00
2019-04-29T06:31:03.704Z,5.10
2019-04-29T06:32:03.904Z,4.70
2019-04-29T06:33:04.089Z,4.80
2019-04-29T06:34:05.228Z,5.20
2019-04-29T06:35:04.459Z,5.00
2019-04-29T06:36:04.641Z,4.70
2019-04-29T06:37:04.830Z,4.80
2019-04-29T06:38:05.020Z,5.00
2019-04-29T06:39:05.204Z,4.90
2019-04-29T06:40:05.391Z,4.10
2019-04-29T06:41:09.603Z,4.60
2019-04-29T06:42:05.776Z,4.30
2019-04-29T06:43:05.946Z,4.30
2019-04-29T06:44:15.825Z,4.20
2019-04-29T06:45:06.338Z,4.10
2019-04-29T06:46:06.531Z,4.60
2019-04-29T06:47:06.729Z,4.80
2019-04-29T06:48:06.918Z,4.10
2019-04-29T06:49:10.507Z,4.20
2019-04-29T06:50:07.293Z,4.40
2019-04-29T06:51:07.477Z,4.60
2019-04-29T06:52:07.669Z,4.60
2019-04-29T06:53:07.865Z,4.70
2019-04-29T06:54:08.050Z,4.20
2019-04-29T06:55:08.239Z,4.80
2019-04-29T06:56:09.273Z,4.70
2019-04-29T06:57:08.647Z,4.90
2019-04-29T06:58:08.797Z,4.30
2019-04-29T06:59:12.060Z,5.10
2019-04-29T07:00:09.174Z,4.10
2019-04-29T07:01:09.365Z,4.80
2019-04-29T07:02:14.278Z,4.30
2019-04-29T07:03:09.759Z,4.50
2019-04-29T07:04:09.945Z,4.30
2019-04-29T07:05:10.133Z,4.40
2019-04-29T07:06:10.329Z,4.20
2019-04-29T07:07:10.513Z,3.90
2019-04-29T07:08:10.697Z,4.30
2019-04-29T07:09:10.883Z,4.60
2019-04-29T07:10:11.076Z,4.70
2019-04-29T07:11:11.299Z,4.10
2019-04-29T07:12:12.464Z,4.90
2019-04-29T07:13:11.653Z,4.30
2019-04-29T07:14:11.856Z,4.00
2019-04-29T07:15:12.571Z,4.10
2019-04-29T07:16:12.270Z,4.30
2019-04-29T07:17:12.451Z,4.10
2019-04-29T07:18:12.642Z,4.30
2019-04-29T07:19:12.835Z,3.90
2019-04-29T07:20:13.334Z,3.80
2019-04-29T07:21:13.287Z,3.50
2019-04-29T07:22:13.463Z,3.80
2019-04-29T07:23:13.663Z,3.80
2019-04-29T07:24:13.905Z,3.80
2019-04-29T07:25:13.988Z,3.50
2019-04-29T07:26:14.184Z,3.70
2019-04-29T07:27:14.374Z,4.10
2019-04-29T07:28:18.481Z,3.30
2019-04-29T07:29:14.762Z,3.80
2019-04-29T07:30:14.959Z,3.60
2019-04-29T07:31:15.153Z,3.40
2019-04-29T07:32:15.351Z,3.40
2019-04-29T07:33:21.808Z,4.30
2019-04-29T07:34:15.744Z,3.40
2019-04-29T07:35:15.924Z,3.30
2019-04-29T07:36:18.617Z,3.70
2019-04-29T07:37:16.734Z,3.70
2019-04-29T07:38:16.502Z,3.40
2019-04-29T07:39:16.700Z,4.10
2019-04-29T07:40:16.894Z,3.50
2019-04-29T07:41:19.015Z,3.80
2019-04-29T07:42:17.279Z,3.90
2019-04-29T07:43:17.475Z,3.50
2019-04-29T07:44:18.422Z,4.00
2019-04-29T07:45:17.874Z,3.70
2019-04-29T07:46:18.064Z,3.50
2019-04-29T07:47:18.263Z,3.80
2019-04-29T07:48:18.464Z,4.00
2019-04-29T07:49:18.914Z,3.90
2019-04-29T07:50:22.330Z,3.70
2019-04-29T07:51:19.046Z,4.00
2019-04-29T07:52:19.250Z,3.90
2019-04-29T07:53:21.444Z,4.10
2019-04-29T07:54:19.641Z,4.10
2019-04-29T07:55:19.845Z,3.80
2019-04-29T07:56:20.039Z,4.20
2019-04-29T07:57:20.242Z,4.20
2019-04-29T07:58:22.953Z,4.00
2019-04-29T07:59:20.637Z,4.00
2019-04-29T08:00:20.826Z,4.70
2019-04-29T08:01:24.546Z,4.40
2019-04-29T08:02:21.211Z,5.10
2019-04-29T08:03:21.407Z,4.40
2019-04-29T08:04:21.607Z,4.40
2019-04-29T08:05:21.804Z,4.50
2019-04-29T08:06:21.998Z,4.40
2019-04-29T08:07:22.192Z,4.80
2019-04-29T08:08:22.840Z,5.20
2019-04-29T08:09:22.579Z,5.70
2019-04-29T08:10:24.034Z,5.50
2019-04-29T08:11:22.964Z,5.60
2019-04-29T08:12:23.157Z,5.20
2019-04-29T08:13:23.351Z,5.30
2019-04-29T08:14:23.563Z,5.50
2019-04-29T08:15:23.749Z,5.40
2019-04-29T08:16:23.942Z,4.70
2019-04-29T08:17:24.129Z,5.40
2019-04-29T08:18:24.320Z,5.30
2019-04-29T08:19:28.819Z,5.40
2019-04-29T08:20:24.714Z,5.20
2019-04-29T08:21:24.914Z,5.70
2019-04-29T08:22:27.846Z,5.10
2019-04-29T08:23:25.277Z,5.50
2019-04-29T08:24:25.483Z,6.30
2019-04-29T08:25:26.263Z,6.40
2019-04-29T08:26:25.890Z,6.30
2019-04-29T08:27:38.926Z,5.40
2019-04-29T08:28:26.255Z,5.90
2019-04-29T08:29:26.451Z,5.90
2019-04-29T08:30:26.637Z,6.00
2019-04-29T08:31:26.827Z,5.80
2019-04-29T08:32:27.317Z,7.10
2019-04-29T08:33:27.264Z,7.30
2019-04-29T08:34:27.435Z,7.60
2019-04-29T08:35:27.636Z,7.60
2019-04-29T08:36:27.848Z,7.70
2019-04-29T08:37:28.055Z,8.80
2019-04-29T08:38:28.264Z,8.40
2019-04-29T08:39:29.518Z,8.50
2019-04-29T08:40:28.633Z,9.10
2019-04-29T08:41:30.009Z,8.50
2019-04-29T08:42:29.032Z,8.80
2019-04-29T08:43:29.228Z,8.90
2019-04-29T08:44:29.436Z,7.80
2019-04-29T08:45:29.636Z,8.50
2019-04-29T08:46:29.835Z,9.00
2019-04-29T08:47:31.630Z,8.70
2019-04-29T08:48:30.235Z,8.50
2019-04-29T08:49:30.412Z,7.90
2019-04-29T08:50:30.607Z,7.70
2019-04-29T08:51:30.792Z,8.00
2019-04-29T08:52:31.013Z,8.10
2019-04-29T08:53:31.244Z,7.90
2019-04-29T08:54:31.434Z,7.50
2019-04-29T08:55:36.115Z,7.70
2019-04-29T08:56:31.832Z,7.50
2019-04-29T08:57:36.604Z,7.40
2019-04-29T08:58:32.213Z,7.00
2019-04-29T08:59:32.408Z,7.60
2019-04-29T09:00:32.609Z,7.50
2019-04-29T09:01:33.973Z,7.70
2019-04-29T09:02:34.987Z,7.30
2019-04-29T09:03:40.132Z,8.00
2019-04-29T09:04:33.834Z,7.40
2019-04-29T09:05:33.572Z,7.90
2019-04-29T09:06:34.022Z,7.60
2019-04-29T09:07:33.962Z,8.40
2019-04-29T09:08:34.601Z,8.30
2019-04-29T09:09:34.351Z,7.20
2019-04-29T09:10:36.735Z,7.20
2019-04-29T09:11:34.730Z,7.40
2019-04-29T09:12:34.930Z,7.80
2019-04-29T09:13:35.122Z,7.70
2019-04-29T09:14:35.316Z,7.70
2019-04-29T09:15:35.517Z,7.00
2019-04-29T09:16:35.713Z,7.10
2019-04-29T09:17:35.913Z,7.70
2019-04-29T09:18:36.106Z,7.20
2019-04-29T09:19:39.247Z,6.40
2019-04-29T09:20:36.497Z,6.20
2019-04-29T09:21:36.691Z,6.40
2019-04-29T09:22:36.889Z,5.80
2019-04-29T09:23:37.093Z,6.10
2019-04-29T09:24:37.287Z,5.80
2019-04-29T09:25:37.484Z,5.20
2019-04-29T09:26:37.693Z,6.60
2019-04-29T09:27:40.755Z,5.50
2019-04-29T09:28:38.081Z,5.50
2019-04-29T09:29:38.295Z,5.60
2019-04-29T09:30:38.962Z,6.00
2019-04-29T09:31:38.687Z,6.50
2019-04-29T09:32:39.930Z,5.70
2019-04-29T09:33:39.084Z,5.90
2019-04-29T09:34:39.290Z,5.60
2019-04-29T09:35:40.558Z,5.90
2019-04-29T09:36:43.898Z,6.40
2019-04-29T09:37:39.896Z,6.60
2019-04-29T09:38:40.087Z,6.90
2019-04-29T09:39:43.471Z,7.50
2019-04-29T09:40:40.483Z,7.60
2019-04-29T09:41:40.686Z,7.70
2019-04-29T09:42:40.883Z,7.60
2019-04-29T09:43:41.076Z,7.90
2019-04-29T09:44:44.917Z,8.10
2019-04-29T09:45:41.474Z,7.90
2019-04-29T09:46:41.663Z,8.20
2019-04-29T09:47:41.854Z,8.30
2019-04-29T09:48:42.053Z,8.00
2019-04-29T09:49:42.252Z,7.60
2019-04-29T09:50:42.453Z,8.60
2019-04-29T09:51:42.649Z,8.00
2019-04-29T09:52:42.841Z,8.80
2019-04-29T09:53:43.038Z,8.20
2019-04-29T09:54:43.226Z,8.50
2019-04-29T09:55:43.417Z,8.00
2019-04-29T09:56:43.608Z,8.20
2019-04-29T09:57:43.801Z,9.20
2019-04-29T09:58:43.990Z,9.20
2019-04-29T09:59:44.184Z,8.80
2019-04-29T10:00:44.383Z,9.20
2019-04-29T10:01:44.573Z,8.80
2019-04-29T10:02:44.772Z,9.00
2019-04-29T10:03:44.972Z,9.00
2019-04-29T10:04:55.741Z,9.40
2019-04-29T10:05:45.357Z,9.00
2019-04-29T10:06:45.552Z,9.50
2019-04-29T10:07:45.736Z,8.50
2019-04-29T10:08:45.934Z,9.40
2019-04-29T10:09:57.014Z,10.00
2019-04-29T10:10:46.313Z,9.30
2019-04-29T10:11:46.513Z,8.70
2019-04-29T10:12:46.703Z,9.40
2019-04-29T10:13:46.898Z,9.50
2019-04-29T10:14:47.088Z,9.60
2019-04-29T10:15:47.277Z,9.20
2019-04-29T10:16:47.478Z,9.40
2019-04-29T10:17:50.786Z,9.60
2019-04-29T10:18:47.867Z,9.50
2019-04-29T10:19:48.059Z,8.90
2019-04-29T10:20:48.242Z,8.90
2019-04-29T10:21:48.432Z,10.00
2019-04-29T10:22:50.268Z,10.00
2019-04-29T10:23:48.818Z,9.30
2019-04-29T10:24:49.013Z,9.90
2019-04-29T10:25:49.197Z,9.10
2019-04-29T10:26:49.391Z,9.60
2019-04-29T10:27:49.584Z,9.40
2019-04-29T10:28:49.787Z,8.40
2019-04-29T10:29:50.784Z,9.20
2019-04-29T10:30:50.179Z,8.90
2019-04-29T10:31:50.370Z,9.00
2019-04-29T10:32:50.569Z,10.70
2019-04-29T10:33:54.776Z,9.70
2019-04-29T10:34:50.963Z,10.10
2019-04-29T10:35:51.148Z,9.30
2019-04-29T10:36:52.575Z,10.60
2019-04-29T10:37:51.544Z,10.40
2019-04-29T10:38:51.728Z,10.60
2019-04-29T10:39:51.921Z,10.20
2019-04-29T10:40:52.119Z,9.10
2019-04-29T10:41:52.310Z,9.80
2019-04-29T10:42:52.495Z,10.20
2019-04-29T10:43:53.654Z,10.00
2019-04-29T10:44:52.879Z,10.10
2019-04-29T10:45:53.068Z,9.80
2019-04-29T10:46:53.267Z,9.90
2019-04-29T10:47:53.453Z,10.00
2019-04-29T10:48:53.649Z,9.50
2019-04-29T10:49:53.846Z,10.10
2019-04-29T10:50:54.098Z,9.60
2019-04-29T10:51:58.140Z,9.20
2019-04-29T10:52:54.418Z,8.50
2019-04-29T10:53:54.614Z,9.30
2019-04-29T10:54:55.447Z,9.30
2019-04-29T10:55:54.996Z,9.60
2019-04-29T10:56:55.190Z,9.30
2019-04-29T10:57:55.377Z,8.60
2019-04-29T10:58:55.572Z,9.20
2019-04-29T10:59:55.785Z,8.90
2019-04-29T11:00:57.362Z,9.80
2019-04-29T11:02:01.739Z,8.90
2019-04-29T11:02:56.361Z,8.80
2019-04-29T11:04:00.902Z,8.40
2019-04-29T11:04:56.758Z,8.70
2019-04-29T11:06:01.752Z,8.30
2019-04-29T11:06:57.143Z,8.20
2019-04-29T11:07:58.141Z,8.20
2019-04-29T11:08:57.521Z,8.50
2019-04-29T11:09:57.710Z,8.00
2019-04-29T11:11:02.377Z,8.10
2019-04-29T11:11:58.093Z,7.60
2019-04-29T11:12:58.287Z,7.30
2019-04-29T11:14:01.431Z,7.60
2019-04-29T11:15:01.346Z,8.70
2019-04-29T11:15:58.851Z,7.70
2019-04-29T11:16:59.035Z,8.00
2019-04-29T11:18:03.054Z,7.50
2019-04-29T11:19:03.083Z,7.40
2019-04-29T11:19:59.624Z,7.20
2019-04-29T11:20:59.816Z,7.70
2019-04-29T11:22:02.211Z,6.80
2019-04-29T11:23:00.194Z,7.40
2019-04-29T11:24:00.386Z,7.40
2019-04-29T11:25:00.584Z,8.10
2019-04-29T11:26:00.776Z,7.70
2019-04-29T11:27:11.664Z,7.50
2019-04-29T11:28:01.161Z,8.00
2019-04-29T11:29:01.357Z,7.00
2019-04-29T11:30:02.986Z,6.80
2019-04-29T11:31:01.731Z,7.30
2019-04-29T11:32:01.922Z,7.00
2019-04-29T11:33:04.624Z,7.20
2019-04-29T11:34:05.350Z,7.10
2019-04-29T11:35:02.493Z,6.70
2019-04-29T11:36:03.979Z,6.90
2019-04-29T11:37:02.927Z,6.70
2019-04-29T11:38:03.455Z,7.40
2019-04-29T11:39:03.715Z,7.10
2019-04-29T11:40:03.402Z,7.30
2019-04-29T11:41:03.602Z,6.90
2019-04-29T11:42:03.790Z,7.30
2019-04-29T11:43:04.001Z,6.70
2019-04-29T11:44:04.189Z,7.10
2019-04-29T11:45:04.400Z,7.30
2019-04-29T11:46:04.568Z,6.80
2019-04-29T11:47:04.764Z,6.90
2019-04-29T11:48:04.948Z,6.80
2019-04-29T11:49:05.135Z,6.90
2019-04-29T11:50:07.570Z,6.90
2019-04-29T11:51:05.526Z,6.40
2019-04-29T11:52:09.779Z,6.90
2019-04-29T11:53:05.918Z,6.80
2019-04-29T11:54:08.186Z,6.70
2019-04-29T11:55:06.293Z,6.70
2019-04-29T11:56:06.496Z,6.50
2019-04-29T11:57:06.696Z,6.70
2019-04-29T11:58:06.888Z,7.00
2019-04-29T11:59:07.135Z,6.60
2019-04-29T12:00:10.125Z,7.00
2019-04-29T12:01:08.589Z,6.20
2019-04-29T12:02:07.627Z,7.10
2019-04-29T12:03:07.835Z,6.90
2019-04-29T12:04:08.028Z,6.80
2019-04-29T12:05:08.636Z,6.70
2019-04-29T12:06:08.412Z,6.00
2019-04-29T12:07:08.601Z,6.30
2019-04-29T12:08:16.121Z,6.80
2019-04-29T12:09:08.978Z,6.70
2019-04-29T12:10:09.168Z,6.10
2019-04-29T12:11:09.390Z,6.10
2019-04-29T12:12:12.858Z,5.90
2019-04-29T12:13:09.762Z,5.90
2019-04-29T12:14:09.939Z,5.60
2019-04-29T12:15:13.743Z,5.80
2019-04-29T12:16:10.314Z,6.30
2019-04-29T12:17:10.502Z,5.20
2019-04-29T12:18:10.690Z,6.60
2019-04-29T12:19:10.875Z,6.20
2019-04-29T12:20:11.069Z,6.10
2019-04-29T12:21:11.264Z,6.10
2019-04-29T12:22:25.909Z,5.70
2019-04-29T12:23:15.742Z,5.80
2019-04-29T12:24:11.825Z,5.80
2019-04-29T12:25:12.016Z,6.30
2019-04-29T12:26:12.199Z,6.20
2019-04-29T12:27:14.830Z,5.00
2019-04-29T12:28:19.255Z,5.40
2019-04-29T12:29:13.615Z,5.60
2019-04-29T12:30:12.978Z,6.50
2019-04-29T12:32:56.790Z,6.10
2019-04-29T12:33:56.083Z,6.10
2019-04-29T12:34:56.272Z,5.90
2019-04-29T12:35:58.714Z,5.80
2019-04-29T12:36:56.984Z,6.30
2019-04-29T12:38:00.737Z,7.90
2019-04-29T12:38:57.050Z,7.10
2019-04-29T12:39:59.648Z,7.30
2019-04-29T12:40:57.404Z,10.00
2019-04-29T12:42:00.634Z,6.60
2019-04-29T12:42:57.786Z,7.90
2019-04-29T12:43:59.516Z,7.10
2019-04-29T12:44:58.161Z,6.50
2019-04-29T12:45:58.355Z,7.20
2019-04-29T12:46:58.538Z,7.20
2019-04-29T12:47:58.719Z,7.50
2019-04-29T12:48:58.909Z,8.20
2019-04-29T12:49:59.103Z,8.50
2019-04-29T12:50:59.291Z,9.20
2019-04-29T12:51:59.473Z,17.70
2019-04-29T12:52:59.672Z,10.30
2019-04-29T12:53:59.873Z,8.20
2019-04-29T12:55:07.049Z,8.10
2019-04-29T12:56:00.284Z,8.60
2019-04-29T12:57:00.443Z,9.50
2019-04-29T12:58:00.649Z,8.00
2019-04-29T12:59:01.797Z,8.80
2019-04-29T13:00:01.016Z,9.50
2019-04-29T13:01:05.711Z,9.50
2019-04-29T13:02:01.487Z,8.60
2019-04-29T13:03:01.919Z,8.70
2019-04-29T13:04:01.779Z,9.10
2019-04-29T13:05:01.968Z,9.60
2019-04-29T13:06:02.588Z,9.10
2019-04-29T13:07:02.342Z,9.70
2019-04-29T13:08:02.535Z,9.10
2019-04-29T13:09:02.718Z,10.00
2019-04-29T13:10:06.828Z,9.70
2019-04-29T13:11:03.095Z,9.40
2019-04-29T13:12:17.962Z,10.20
2019-04-29T13:13:03.469Z,9.60
2019-04-29T13:14:03.658Z,10.10
2019-04-29T13:15:07.879Z,10.70
2019-04-29T13:16:04.031Z,9.80
2019-04-29T13:17:14.369Z,10.10
2019-04-29T13:18:13.020Z,9.70
2019-04-29T13:19:11.638Z,10.40
2019-04-29T13:20:07.288Z,10.50
2019-04-29T13:21:10.335Z,10.10
2019-04-29T13:22:05.156Z,10.80